CPX223 Details

Departure: Seattle-Tacoma International Airport (KSEA)
Arrival: March Air Reserve Base (KRIV) at N/A
Route: SUMMA1 SUMMA JINMO Q7 JAGWA LANDO PMD MARCH4
Notes:


Current Weather Information
KSEA 171753Z 22007KT 10SM BKN017 BKN025 OVC055 19/13 A3003 RMK AO2 SLP172 T01940128 10194 20156 51005
KRIV 171758Z AUTO 02003KT 10SM CLR 25/13 A2993 RMK AO2 SLP124 T02480133 10248 20141 58004